Terminal Aerodrome Forecast
Issued by NWS

Home | Current Version | Previous Version | Graphics & Text | Print | Product List | Glossary Off
Versions: 1 2 3 4 5 6 7 8 9 10 11 12

000
FTUS43 KUNR 212300
TAFGCC
TAF
KGCC 212328Z 2200/2224 24015G25KT P6SM BKN150
     FM220400 30014KT P6SM BKN200
     FM221000 29010KT P6SM SCT200=

USA.gov is the U.S. government's official web portal to all federal, state and local government web resources and services.